createdAt,value
2019-03-03T00:00:55.417Z,11.70
2019-03-03T00:03:24.738Z,11.87
2019-03-03T00:05:54.317Z,10.97
2019-03-03T00:08:24.635Z,7.80
2019-03-03T00:10:54.059Z,12.27
2019-03-03T00:13:23.355Z,12.33
2019-03-03T00:15:52.583Z,11.47
2019-03-03T00:18:21.843Z,11.70
2019-03-03T00:20:51.098Z,15.60
2019-03-03T00:23:20.332Z,12.10
2019-03-03T00:25:49.604Z,11.07
2019-03-03T00:28:18.804Z,13.43
2019-03-03T00:30:49.605Z,10.97
2019-03-03T00:33:38.072Z,12.93
2019-03-03T00:36:07.454Z,9.47
2019-03-03T00:38:58.067Z,14.33
2019-03-03T00:41:50.212Z,9.00
2019-03-03T00:44:50.864Z,12.43
2019-03-03T00:47:37.519Z,15.70
2019-03-03T00:50:20.240Z,8.13
2019-03-03T00:52:57.672Z,9.63
2019-03-03T00:55:33.697Z,8.90
2019-03-03T00:58:20.975Z,10.37
2019-03-03T01:01:00.883Z,8.43
2019-03-03T01:03:55.453Z,12.37
2019-03-03T01:06:55.755Z,8.50
2019-03-03T01:09:44.325Z,12.47
2019-03-03T01:12:35.743Z,11.77
2019-03-03T01:15:31.156Z,12.03
2019-03-03T01:18:14.907Z,8.17
2019-03-03T01:21:03.159Z,10.80
2019-03-03T01:23:42.316Z,12.53
2019-03-03T01:26:11.629Z,10.93
2019-03-03T01:28:40.901Z,14.33
2019-03-03T01:31:10.198Z,11.03
2019-03-03T01:33:39.440Z,10.10
2019-03-03T01:36:08.642Z,4.97
2019-03-03T01:38:37.884Z,11.50
2019-03-03T01:41:07.205Z,7.67
2019-03-03T01:43:36.399Z,7.87
2019-03-03T01:46:07.283Z,8.50
2019-03-03T01:48:36.555Z,10.33
2019-03-03T01:51:06.026Z,10.97
2019-03-03T01:53:35.217Z,8.70
2019-03-03T01:56:04.940Z,9.43
2019-03-03T01:58:34.208Z,9.00
2019-03-03T02:01:03.392Z,9.53
2019-03-03T02:03:33.014Z,9.17
2019-03-03T02:06:02.601Z,8.83
2019-03-03T02:08:31.820Z,9.20
2019-03-03T02:11:01.067Z,8.33
2019-03-03T02:13:30.337Z,10.70
2019-03-03T02:15:59.605Z,11.87
2019-03-03T02:18:28.878Z,11.93
2019-03-03T02:20:58.158Z,8.87
2019-03-03T02:23:27.454Z,9.57
2019-03-03T02:25:56.701Z,9.67
2019-03-03T02:28:26.023Z,10.00
2019-03-03T02:30:55.400Z,10.87
2019-03-03T02:33:24.644Z,10.47
2019-03-03T02:35:53.921Z,9.67
2019-03-03T02:38:23.146Z,11.13
2019-03-03T02:40:52.425Z,10.70
2019-03-03T02:43:21.707Z,12.67
2019-03-03T02:45:51.039Z,11.23
2019-03-03T02:48:20.259Z,10.63
2019-03-03T02:50:49.574Z,11.57
2019-03-03T02:53:18.985Z,8.43
2019-03-03T02:55:48.184Z,10.27
2019-03-03T02:58:17.406Z,9.47
2019-03-03T03:00:54.238Z,11.50
2019-03-03T03:03:23.855Z,14.17
2019-03-03T03:06:02.981Z,8.67
2019-03-03T03:08:36.847Z,11.83
2019-03-03T03:11:31.218Z,15.23
2019-03-03T03:14:16.227Z,16.03
2019-03-03T03:16:51.867Z,9.37
2019-03-03T03:19:40.135Z,13.47
2019-03-03T03:22:40.697Z,12.90
2019-03-03T03:25:32.146Z,10.67
2019-03-03T03:28:20.368Z,10.27
2019-03-03T03:31:14.421Z,10.93
2019-03-03T03:33:49.967Z,11.87
2019-03-03T03:36:44.279Z,10.90
2019-03-03T03:39:31.457Z,11.33
2019-03-03T03:42:10.487Z,13.17
2019-03-03T03:44:55.504Z,12.67
2019-03-03T03:47:29.991Z,15.00
2019-03-03T03:50:14.852Z,13.23
2019-03-03T03:53:01.653Z,13.20
2019-03-03T03:55:53.208Z,12.67
2019-03-03T03:58:44.540Z,14.00
2019-03-03T04:01:28.515Z,16.00
2019-03-03T04:04:05.325Z,12.20
2019-03-03T04:06:41.973Z,12.53
2019-03-03T04:09:21.849Z,16.33
2019-03-03T04:12:15.687Z,13.27
2019-03-03T04:14:50.966Z,13.77
2019-03-03T04:17:54.630Z,20.13
2019-03-03T04:20:37.183Z,20.53
2019-03-03T04:23:24.072Z,18.63
2019-03-03T04:26:01.992Z,18.60
2019-03-03T04:28:50.219Z,14.57
2019-03-03T04:31:29.472Z,14.53
2019-03-03T04:34:17.538Z,13.43
2019-03-03T04:36:55.096Z,15.07
2019-03-03T04:39:40.177Z,15.77
2019-03-03T04:42:21.476Z,16.23
2019-03-03T04:45:09.698Z,14.77
2019-03-03T04:47:57.026Z,12.97
2019-03-03T04:50:49.624Z,16.37
2019-03-03T04:53:53.244Z,16.67
2019-03-03T04:56:31.008Z,14.30
2019-03-03T04:59:19.478Z,13.73
2019-03-03T05:01:57.814Z,16.17
2019-03-03T05:04:35.649Z,18.93
2019-03-03T05:07:12.096Z,15.30
2019-03-03T05:09:53.913Z,17.17
2019-03-03T05:12:52.936Z,23.57
2019-03-03T05:15:40.128Z,18.43
2019-03-03T05:18:31.371Z,19.93
2019-03-03T05:21:00.686Z,19.93
2019-03-03T05:23:29.878Z,15.10
2019-03-03T05:25:59.079Z,17.17
2019-03-03T05:28:28.296Z,20.17
2019-03-03T05:30:57.495Z,14.23
2019-03-03T05:33:26.677Z,17.40
2019-03-03T05:35:55.982Z,21.60
2019-03-03T05:38:25.177Z,21.33
2019-03-03T05:40:54.363Z,16.80
2019-03-03T05:43:23.684Z,16.47
2019-03-03T05:45:52.961Z,22.77
2019-03-03T05:48:22.160Z,19.43
2019-03-03T05:50:51.525Z,16.73
2019-03-03T05:53:22.609Z,22.17
2019-03-03T05:55:51.919Z,16.93
2019-03-03T05:58:21.427Z,21.37
2019-03-03T06:00:50.680Z,20.70
2019-03-03T06:03:19.872Z,19.83
2019-03-03T06:05:49.110Z,20.10
2019-03-03T06:08:18.332Z,24.07
2019-03-03T06:10:47.508Z,21.23
2019-03-03T06:13:16.890Z,19.57
2019-03-03T06:15:46.178Z,25.50
2019-03-03T06:18:18.434Z,24.20
2019-03-03T06:20:47.832Z,21.83
2019-03-03T06:23:17.024Z,20.93
2019-03-03T06:25:46.209Z,22.13
2019-03-03T06:28:15.493Z,23.70
2019-03-03T06:30:44.888Z,28.70
2019-03-03T06:33:14.143Z,22.77
2019-03-03T06:35:43.415Z,30.90
2019-03-03T06:38:12.702Z,24.67
2019-03-03T06:40:41.923Z,21.90
2019-03-03T06:43:11.102Z,18.53
2019-03-03T06:45:40.352Z,20.67
2019-03-03T06:48:09.581Z,25.50
2019-03-03T06:50:38.976Z,18.70
2019-03-03T06:53:08.194Z,25.30
2019-03-03T06:55:37.479Z,21.80
2019-03-03T06:58:06.921Z,29.03
2019-03-03T07:00:36.142Z,22.37
2019-03-03T07:03:05.366Z,20.57
2019-03-03T07:05:34.551Z,22.33
2019-03-03T07:08:03.865Z,22.40
2019-03-03T07:10:33.142Z,28.63
2019-03-03T07:13:02.575Z,20.87
2019-03-03T07:15:31.931Z,24.97
2019-03-03T07:18:01.354Z,21.47
2019-03-03T07:20:30.672Z,23.77
2019-03-03T07:23:00.117Z,24.40
2019-03-03T07:25:29.390Z,19.73
2019-03-03T07:27:58.677Z,20.97
2019-03-03T07:30:28.033Z,23.43
2019-03-03T07:33:32.475Z,23.67
2019-03-03T07:36:01.823Z,22.63
2019-03-03T07:38:31.042Z,23.90
2019-03-03T07:41:00.355Z,23.13
2019-03-03T07:43:29.553Z,21.63
2019-03-03T07:45:58.785Z,20.60
2019-03-03T07:48:28.100Z,28.83
2019-03-03T07:50:57.299Z,18.70
2019-03-03T07:53:26.560Z,20.57
2019-03-03T07:55:55.792Z,25.47
2019-03-03T07:58:25.413Z,21.93
2019-03-03T08:00:54.606Z,22.07
2019-03-03T08:03:23.920Z,24.03
2019-03-03T08:05:53.114Z,24.60
2019-03-03T08:08:22.322Z,21.40
2019-03-03T08:10:51.643Z,17.80
2019-03-03T08:13:20.920Z,18.40
2019-03-03T08:15:50.139Z,23.60
2019-03-03T08:18:19.401Z,24.70
2019-03-03T08:20:48.826Z,27.67
2019-03-03T08:23:18.113Z,20.00
2019-03-03T08:25:47.379Z,23.47
2019-03-03T08:28:16.578Z,16.77
2019-03-03T08:30:49.006Z,17.43
2019-03-03T08:33:18.267Z,22.70
2019-03-03T08:35:47.476Z,27.50
2019-03-03T08:38:17.374Z,25.13
2019-03-03T08:40:49.542Z,20.27
2019-03-03T08:43:31.061Z,15.87
2019-03-03T08:46:19.670Z,17.73
2019-03-03T08:48:55.953Z,23.03
2019-03-03T08:51:42.809Z,13.73
2019-03-03T08:54:43.008Z,24.20
2019-03-03T08:57:46.367Z,21.80
2019-03-03T09:00:46.540Z,16.63
2019-03-03T09:03:50.140Z,20.87
2019-03-03T09:06:50.493Z,13.17
2019-03-03T09:09:38.832Z,18.27
2019-03-03T09:12:28.796Z,14.73
2019-03-03T09:15:11.163Z,15.70
2019-03-03T09:17:58.327Z,13.20
2019-03-03T09:20:45.983Z,15.80
2019-03-03T09:23:46.693Z,12.03
2019-03-03T09:26:33.770Z,14.67
2019-03-03T09:29:19.249Z,11.63
2019-03-03T09:32:06.566Z,17.57
2019-03-03T09:34:57.655Z,13.20
2019-03-03T09:37:32.930Z,16.17
2019-03-03T09:40:13.913Z,15.10
2019-03-03T09:42:50.576Z,11.23
2019-03-03T09:45:35.108Z,13.20
2019-03-03T09:48:29.467Z,11.17
2019-03-03T09:51:24.989Z,14.23
2019-03-03T09:54:27.908Z,13.03
2019-03-03T09:57:22.035Z,7.90
2019-03-03T10:00:11.657Z,9.30
2019-03-03T10:02:50.292Z,12.23
2019-03-03T10:05:38.765Z,10.93
2019-03-03T10:08:28.222Z,9.37
2019-03-03T10:11:21.976Z,11.30
2019-03-03T10:13:58.632Z,10.17
2019-03-03T10:16:39.532Z,11.37
2019-03-03T10:19:15.686Z,12.00
2019-03-03T10:22:03.945Z,7.10
2019-03-03T10:24:50.826Z,9.67
2019-03-03T10:27:30.700Z,9.53
2019-03-03T10:30:47.070Z,9.33
2019-03-03T10:33:47.419Z,9.03
2019-03-03T10:36:30.632Z,8.40
2019-03-03T10:39:20.648Z,8.40
2019-03-03T10:42:11.923Z,7.87
2019-03-03T10:45:06.390Z,8.10
2019-03-03T10:47:52.206Z,10.47
2019-03-03T10:50:49.719Z,8.73
2019-03-03T10:53:37.980Z,6.30
2019-03-03T10:56:17.075Z,5.97
2019-03-03T10:59:04.872Z,7.67
2019-03-03T11:01:52.268Z,7.57
2019-03-03T11:04:32.231Z,9.23
2019-03-03T11:07:26.386Z,10.63
2019-03-03T11:10:23.554Z,7.97
2019-03-03T11:13:11.851Z,8.77
2019-03-03T11:15:59.047Z,7.93
2019-03-03T11:18:59.725Z,6.60
2019-03-03T11:21:57.338Z,7.47
2019-03-03T11:24:51.635Z,9.87
2019-03-03T11:27:26.590Z,9.77
2019-03-03T11:30:27.213Z,7.60
2019-03-03T11:33:21.341Z,6.87
2019-03-03T11:36:03.895Z,11.07
2019-03-03T11:38:45.380Z,8.80
2019-03-03T11:41:37.197Z,7.07
2019-03-03T11:44:17.731Z,8.03
2019-03-03T11:46:58.052Z,9.13
2019-03-03T11:49:42.992Z,10.13
2019-03-03T11:52:40.515Z,9.33
2019-03-03T11:55:24.936Z,7.77
2019-03-03T11:58:24.615Z,6.00
2019-03-03T12:01:06.106Z,9.70
2019-03-03T12:03:48.246Z,9.07
2019-03-03T12:06:35.952Z,10.93
2019-03-03T12:09:29.562Z,7.93
2019-03-03T12:12:33.026Z,8.90
2019-03-03T12:15:10.451Z,10.77
2019-03-03T12:17:51.262Z,10.33
2019-03-03T12:20:54.813Z,14.07
2019-03-03T12:23:42.347Z,13.27
2019-03-03T12:26:30.629Z,10.10
2019-03-03T12:29:28.091Z,11.20
2019-03-03T12:32:19.211Z,9.37
2019-03-03T12:35:13.243Z,14.33
2019-03-03T12:38:13.621Z,10.27
2019-03-03T12:41:16.921Z,10.20
2019-03-03T12:44:23.413Z,11.13
2019-03-03T12:47:06.226Z,11.83
2019-03-03T12:49:44.967Z,15.23
2019-03-03T12:52:42.513Z,14.37
2019-03-03T12:55:30.775Z,10.37
2019-03-03T12:58:22.087Z,11.80
2019-03-03T13:01:13.476Z,13.20
2019-03-03T13:04:04.869Z,14.73
2019-03-03T13:06:50.758Z,15.20
2019-03-03T13:09:33.004Z,15.43
2019-03-03T13:12:14.816Z,12.37
2019-03-03T13:14:54.743Z,10.53
2019-03-03T13:17:58.284Z,13.43
2019-03-03T13:20:49.491Z,11.13
2019-03-03T13:23:36.568Z,10.63
2019-03-03T13:26:34.356Z,13.87
2019-03-03T13:29:35.321Z,16.00
2019-03-03T13:32:23.525Z,13.37
2019-03-03T13:35:11.864Z,13.13
2019-03-03T13:38:06.223Z,16.40
2019-03-03T13:40:54.523Z,12.13
2019-03-03T13:43:23.814Z,15.10
2019-03-03T13:45:53.296Z,11.77
2019-03-03T13:48:22.747Z,12.33
2019-03-03T13:50:51.939Z,12.30
2019-03-03T13:53:21.229Z,15.70
2019-03-03T13:55:50.748Z,18.47
2019-03-03T13:58:20.056Z,10.77
2019-03-03T14:00:49.415Z,14.73
2019-03-03T14:03:18.707Z,21.10
2019-03-03T14:05:48.109Z,14.13
2019-03-03T14:08:17.331Z,17.03
2019-03-03T14:10:46.582Z,19.87
2019-03-03T14:13:15.843Z,16.37
2019-03-03T14:15:46.726Z,16.43
2019-03-03T14:18:16.113Z,21.70
2019-03-03T14:20:45.368Z,20.30
2019-03-03T14:23:14.607Z,18.57
2019-03-03T14:25:43.921Z,16.10
2019-03-03T14:28:13.216Z,17.97
2019-03-03T14:30:42.466Z,16.70
2019-03-03T14:33:11.843Z,21.70
2019-03-03T14:35:41.116Z,18.33
2019-03-03T14:38:10.319Z,20.57
2019-03-03T14:40:39.544Z,26.50
2019-03-03T14:43:09.226Z,21.90
2019-03-03T14:45:38.602Z,17.70
2019-03-03T14:48:08.151Z,16.50
2019-03-03T14:50:37.795Z,17.17
2019-03-03T14:53:07.010Z,16.47
2019-03-03T14:55:36.500Z,18.50
2019-03-03T14:58:05.718Z,15.00
2019-03-03T15:00:35.051Z,18.93
2019-03-03T15:03:06.366Z,18.07
2019-03-03T15:05:36.880Z,17.53
2019-03-03T15:08:06.355Z,17.13
2019-03-03T15:10:35.677Z,16.55
2019-03-03T15:13:04.968Z,17.97
2019-03-03T15:15:34.830Z,14.97
2019-03-03T15:18:04.338Z,19.50
2019-03-03T15:20:33.996Z,22.70
2019-03-03T15:23:03.374Z,19.93
2019-03-03T15:25:32.613Z,17.37
2019-03-03T15:28:01.875Z,17.93
2019-03-03T15:30:31.117Z,15.40
2019-03-03T15:33:00.357Z,22.87
2019-03-03T15:35:30.794Z,12.73
2019-03-03T15:38:00.059Z,16.90
2019-03-03T15:40:29.802Z,21.50
2019-03-03T15:42:59.000Z,22.97
2019-03-03T15:45:28.203Z,12.47
2019-03-03T15:47:57.529Z,15.83
2019-03-03T15:50:26.735Z,20.30
2019-03-03T15:52:56.075Z,21.77
2019-03-03T15:55:25.393Z,16.87
2019-03-03T15:57:54.753Z,16.23
2019-03-03T16:00:26.127Z,19.97
2019-03-03T16:02:55.836Z,17.53
2019-03-03T16:05:25.280Z,15.17
2019-03-03T16:07:55.933Z,23.67
2019-03-03T16:10:25.349Z,17.10
2019-03-03T16:12:55.494Z,14.37
2019-03-03T16:15:24.866Z,15.90
2019-03-03T16:17:54.100Z,10.47
2019-03-03T16:20:23.924Z,18.13
2019-03-03T16:22:53.259Z,15.87
2019-03-03T16:25:24.502Z,17.10
2019-03-03T16:27:53.704Z,12.17
2019-03-03T16:30:23.031Z,15.60
2019-03-03T16:32:52.353Z,10.93
2019-03-03T16:35:21.570Z,14.10
2019-03-03T16:37:51.078Z,16.20
2019-03-03T16:40:21.454Z,14.83
2019-03-03T16:42:50.884Z,16.27
2019-03-03T16:45:20.870Z,17.10
2019-03-03T16:47:50.135Z,16.57
2019-03-03T16:50:19.348Z,17.83
2019-03-03T16:52:48.980Z,10.67
2019-03-03T16:55:19.376Z,13.50
2019-03-03T16:57:48.595Z,18.83
2019-03-03T17:00:24.039Z,18.30
2019-03-03T17:02:55.235Z,14.00
2019-03-03T17:05:24.693Z,12.67
2019-03-03T17:07:53.913Z,13.60
2019-03-03T17:10:23.204Z,18.47
2019-03-03T17:12:52.605Z,13.53
2019-03-03T17:15:22.455Z,13.83
2019-03-03T17:17:51.945Z,12.03
2019-03-03T17:20:21.808Z,15.00
2019-03-03T17:22:51.115Z,16.87
2019-03-03T17:25:21.711Z,17.60
2019-03-03T17:27:53.589Z,14.63
2019-03-03T17:30:23.205Z,16.03
2019-03-03T17:32:52.630Z,20.23
2019-03-03T17:35:21.883Z,14.03
2019-03-03T17:37:51.079Z,15.50
2019-03-03T17:40:21.130Z,15.97
2019-03-03T17:42:52.226Z,14.07
2019-03-03T17:45:21.647Z,15.20
2019-03-03T17:47:50.944Z,14.20
2019-03-03T17:50:21.198Z,18.03
2019-03-03T17:52:50.406Z,15.47
2019-03-03T17:55:19.741Z,14.00
2019-03-03T17:57:49.044Z,14.47
2019-03-03T18:00:20.928Z,13.10
2019-03-03T18:02:50.217Z,16.83
2019-03-03T18:05:20.798Z,16.23
2019-03-03T18:07:50.597Z,12.33
2019-03-03T18:10:20.086Z,9.20
2019-03-03T18:12:49.650Z,9.70
2019-03-03T18:15:19.139Z,13.37
2019-03-03T18:17:50.382Z,13.93
2019-03-03T18:20:19.729Z,11.97
2019-03-03T18:22:49.299Z,12.30
2019-03-03T18:25:18.929Z,11.57
2019-03-03T18:27:48.452Z,11.73
2019-03-03T18:30:20.051Z,14.50
2019-03-03T18:32:49.554Z,11.60
2019-03-03T18:35:18.875Z,11.47
2019-03-03T18:37:48.229Z,14.93
2019-03-03T18:40:19.095Z,8.13
2019-03-03T18:42:48.853Z,10.30
2019-03-03T18:45:18.613Z,15.83
2019-03-03T18:47:48.051Z,9.10
2019-03-03T18:50:18.170Z,12.10
2019-03-03T18:52:47.670Z,12.00
2019-03-03T18:55:17.234Z,13.33
2019-03-03T18:57:46.743Z,11.77
2019-03-03T19:00:18.644Z,11.93
2019-03-03T19:02:47.947Z,12.80
2019-03-03T19:05:17.848Z,10.83
2019-03-03T19:07:47.508Z,13.67
2019-03-03T19:10:18.820Z,9.60
2019-03-03T19:12:48.208Z,11.97
2019-03-03T19:15:18.266Z,9.87
2019-03-03T19:17:47.710Z,10.20
2019-03-03T19:20:18.000Z,14.87
2019-03-03T19:22:47.857Z,11.43
2019-03-03T19:25:18.726Z,13.00
2019-03-03T19:27:49.157Z,15.20
2019-03-03T19:30:22.955Z,10.00
2019-03-03T19:32:58.806Z,11.53
2019-03-03T19:35:28.136Z,9.33
2019-03-03T19:38:03.844Z,12.23
2019-03-03T19:40:30.571Z,10.43
2019-03-03T19:42:59.736Z,12.47
2019-03-03T19:45:31.086Z,12.83
2019-03-03T19:48:00.301Z,13.70
2019-03-03T19:50:29.667Z,10.47
2019-03-03T19:52:58.851Z,8.93
2019-03-03T19:55:28.119Z,8.53
2019-03-03T19:57:57.430Z,14.80
2019-03-03T20:00:35.922Z,9.47
2019-03-03T20:03:01.917Z,8.37
2019-03-03T20:05:31.719Z,9.07
2019-03-03T20:08:01.089Z,16.70
2019-03-03T20:10:30.402Z,11.07
2019-03-03T20:13:01.813Z,12.93
2019-03-03T20:15:49.952Z,12.83
2019-03-03T20:18:19.387Z,8.37
2019-03-03T20:20:48.868Z,6.70
2019-03-03T20:23:18.179Z,9.13
2019-03-03T20:25:47.563Z,14.27
2019-03-03T20:28:16.860Z,10.37
2019-03-03T20:30:46.569Z,9.43
2019-03-03T20:33:16.946Z,9.53
2019-03-03T20:35:46.238Z,9.97
2019-03-03T20:38:15.619Z,8.90
2019-03-03T20:40:44.802Z,10.73
2019-03-03T20:43:14.073Z,9.03
2019-03-03T20:45:43.640Z,11.43
2019-03-03T20:48:13.018Z,9.53
2019-03-03T20:50:42.322Z,12.30
2019-03-03T20:53:11.667Z,10.67
2019-03-03T20:55:40.958Z,8.60
2019-03-03T20:58:10.194Z,6.70
2019-03-03T21:00:39.620Z,8.63
2019-03-03T21:03:10.176Z,9.00
2019-03-03T21:05:39.368Z,8.10
2019-03-03T21:08:08.673Z,10.27
2019-03-03T21:10:37.882Z,10.30
2019-03-03T21:13:07.159Z,8.73
2019-03-03T21:15:37.887Z,11.53
2019-03-03T21:18:07.305Z,10.33
2019-03-03T21:20:36.636Z,9.07
2019-03-03T21:23:05.969Z,11.27
2019-03-03T21:25:37.053Z,7.60
2019-03-03T21:28:06.518Z,14.27
2019-03-03T21:30:35.933Z,9.07
2019-03-03T21:33:05.205Z,7.87
2019-03-03T21:35:34.422Z,7.47
2019-03-03T21:38:03.765Z,7.77
2019-03-03T21:40:33.051Z,9.60
2019-03-03T21:43:03.717Z,8.37
2019-03-03T21:45:34.196Z,11.30
2019-03-03T21:48:03.474Z,6.87
2019-03-03T21:50:32.686Z,11.03
2019-03-03T21:53:02.080Z,9.60
2019-03-03T21:55:31.330Z,7.27
2019-03-03T21:58:00.730Z,11.10
2019-03-03T22:00:31.897Z,9.17
2019-03-03T22:03:01.172Z,8.70
2019-03-03T22:05:33.744Z,8.37
2019-03-03T22:08:03.964Z,7.07
2019-03-03T22:10:33.712Z,9.77
2019-03-03T22:13:07.844Z,9.37
2019-03-03T22:15:37.278Z,7.87
2019-03-03T22:18:06.620Z,11.97
2019-03-03T22:20:35.929Z,8.17
2019-03-03T22:23:05.578Z,6.97
2019-03-03T22:25:34.762Z,8.03
2019-03-03T22:28:04.043Z,6.07
2019-03-03T22:30:33.305Z,9.23
2019-03-03T22:33:02.562Z,8.10
2019-03-03T22:35:33.993Z,6.63
2019-03-03T22:38:03.231Z,9.43
2019-03-03T22:40:32.483Z,8.07
2019-03-03T22:43:01.686Z,7.30
2019-03-03T22:45:30.979Z,8.00
2019-03-03T22:48:00.161Z,7.23
2019-03-03T22:50:29.366Z,7.63
2019-03-03T22:52:58.583Z,5.30
2019-03-03T22:55:29.327Z,5.60
2019-03-03T22:57:58.505Z,4.97
2019-03-03T23:00:50.282Z,4.83
2019-03-03T23:03:29.839Z,6.13
2019-03-03T23:06:21.982Z,7.00
2019-03-03T23:09:19.663Z,7.73
2019-03-03T23:12:01.595Z,7.57
2019-03-03T23:14:53.244Z,8.37
2019-03-03T23:17:50.762Z,7.13
2019-03-03T23:20:41.246Z,9.77
2019-03-03T23:24:15.738Z,5.30
2019-03-03T23:26:45.024Z,8.33
2019-03-03T23:29:14.197Z,8.90
2019-03-03T23:31:43.504Z,8.30
2019-03-03T23:34:12.702Z,7.57
2019-03-03T23:36:41.998Z,5.63
2019-03-03T23:39:11.602Z,4.47
2019-03-03T23:41:40.880Z,6.67
2019-03-03T23:44:10.161Z,4.13
2019-03-03T23:46:39.376Z,7.00
2019-03-03T23:49:08.696Z,5.40
2019-03-03T23:51:38.453Z,3.13
2019-03-03T23:54:07.723Z,5.50
2019-03-03T23:56:36.906Z,3.63
2019-03-03T23:59:06.121Z,6.80
